sensor_id;sensor_type;location;lat;lon;timestamp;P1;durP1;ratioP1;P2;durP2;ratioP2
9880;SDS011;4979;51.014;6.678;2023-05-10T00:00:07;11.80;;;9.88;;
9880;SDS011;4979;51.014;6.678;2023-05-10T00:02:34;11.93;;;8.90;;
9880;SDS011;4979;51.014;6.678;2023-05-10T00:05:00;12.13;;;8.95;;
9880;SDS011;4979;51.014;6.678;2023-05-10T00:07:26;11.57;;;10.27;;
9880;SDS011;4979;51.014;6.678;2023-05-10T00:09:51;15.50;;;10.50;;
9880;SDS011;4979;51.014;6.678;2023-05-10T00:12:17;12.30;;;10.27;;
9880;SDS011;4979;51.014;6.678;2023-05-10T00:14:42;10.75;;;9.57;;
9880;SDS011;4979;51.014;6.678;2023-05-10T00:17:08;13.90;;;10.68;;
9880;SDS011;4979;51.014;6.678;2023-05-10T00:19:34;12.73;;;10.23;;
9880;SDS011;4979;51.014;6.678;2023-05-10T00:22:00;10.73;;;9.38;;
9880;SDS011;4979;51.014;6.678;2023-05-10T00:24:25;14.25;;;10.60;;
9880;SDS011;4979;51.014;6.678;2023-05-10T00:26:51;12.38;;;10.30;;
9880;SDS011;4979;51.014;6.678;2023-05-10T00:29:16;13.02;;;9.43;;
9880;SDS011;4979;51.014;6.678;2023-05-10T00:31:42;11.80;;;10.35;;
9880;SDS011;4979;51.014;6.678;2023-05-10T00:34:07;12.40;;;10.50;;
9880;SDS011;4979;51.014;6.678;2023-05-10T00:36:33;13.73;;;10.93;;
9880;SDS011;4979;51.014;6.678;2023-05-10T00:38:58;15.23;;;10.82;;
9880;SDS011;4979;51.014;6.678;2023-05-10T00:41:24;12.52;;;10.70;;
9880;SDS011;4979;51.014;6.678;2023-05-10T00:43:50;12.52;;;9.93;;
9880;SDS011;4979;51.014;6.678;2023-05-10T00:46:15;13.38;;;9.93;;
9880;SDS011;4979;51.014;6.678;2023-05-10T00:48:41;12.50;;;9.82;;
9880;SDS011;4979;51.014;6.678;2023-05-10T00:51:08;14.77;;;10.60;;
9880;SDS011;4979;51.014;6.678;2023-05-10T00:53:33;12.77;;;10.43;;
9880;SDS011;4979;51.014;6.678;2023-05-10T00:56:00;13.15;;;10.02;;
9880;SDS011;4979;51.014;6.678;2023-05-10T00:58:26;14.95;;;10.35;;
9880;SDS011;4979;51.014;6.678;2023-05-10T01:00:53;14.68;;;11.20;;
9880;SDS011;4979;51.014;6.678;2023-05-10T01:03:22;13.05;;;10.82;;
9880;SDS011;4979;51.014;6.678;2023-05-10T01:05:47;12.38;;;9.82;;
9880;SDS011;4979;51.014;6.678;2023-05-10T01:08:13;11.07;;;9.52;;
9880;SDS011;4979;51.014;6.678;2023-05-10T01:10:39;11.27;;;9.35;;
9880;SDS011;4979;51.014;6.678;2023-05-10T01:13:05;10.88;;;7.75;;
9880;SDS011;4979;51.014;6.678;2023-05-10T01:15:31;8.52;;;5.70;;
9880;SDS011;4979;51.014;6.678;2023-05-10T01:17:56;6.32;;;5.38;;
9880;SDS011;4979;51.014;6.678;2023-05-10T01:20:23;8.18;;;6.10;;
9880;SDS011;4979;51.014;6.678;2023-05-10T01:29:17;4.93;;;3.70;;
9880;SDS011;4979;51.014;6.678;2023-05-10T01:34:45;8.20;;;5.85;;
9880;SDS011;4979;51.014;6.678;2023-05-10T01:37:15;9.40;;;5.03;;
9880;SDS011;4979;51.014;6.678;2023-05-10T01:39:53;6.60;;;4.93;;
9880;SDS011;4979;51.014;6.678;2023-05-10T01:42:29;8.38;;;4.63;;
9880;SDS011;4979;51.014;6.678;2023-05-10T01:47:40;8.38;;;5.35;;
9880;SDS011;4979;51.014;6.678;2023-05-10T01:50:10;11.38;;;5.43;;
9880;SDS011;4979;51.014;6.678;2023-05-10T01:52:44;8.48;;;5.18;;
9880;SDS011;4979;51.014;6.678;2023-05-10T01:55:20;7.57;;;6.30;;
9880;SDS011;4979;51.014;6.678;2023-05-10T01:57:48;9.10;;;6.53;;
9880;SDS011;4979;51.014;6.678;2023-05-10T02:00:21;7.80;;;6.43;;
9880;SDS011;4979;51.014;6.678;2023-05-10T02:02:48;8.90;;;6.15;;
9880;SDS011;4979;51.014;6.678;2023-05-10T02:05:16;9.57;;;7.00;;
9880;SDS011;4979;51.014;6.678;2023-05-10T02:07:43;11.73;;;6.25;;
9880;SDS011;4979;51.014;6.678;2023-05-10T02:10:09;11.98;;;6.90;;
9880;SDS011;4979;51.014;6.678;2023-05-10T02:12:36;8.10;;;6.03;;
9880;SDS011;4979;51.014;6.678;2023-05-10T02:15:06;9.77;;;5.53;;
9880;SDS011;4979;51.014;6.678;2023-05-10T02:17:32;8.30;;;6.32;;
9880;SDS011;4979;51.014;6.678;2023-05-10T02:20:01;7.35;;;6.00;;
9880;SDS011;4979;51.014;6.678;2023-05-10T02:22:28;9.40;;;5.80;;
9880;SDS011;4979;51.014;6.678;2023-05-10T02:24:58;10.00;;;6.75;;
9880;SDS011;4979;51.014;6.678;2023-05-10T02:27:25;8.52;;;5.90;;
9880;SDS011;4979;51.014;6.678;2023-05-10T02:29:52;8.88;;;6.65;;
9880;SDS011;4979;51.014;6.678;2023-05-10T02:32:19;6.80;;;6.05;;
9880;SDS011;4979;51.014;6.678;2023-05-10T02:34:46;10.05;;;6.65;;
9880;SDS011;4979;51.014;6.678;2023-05-10T02:37:16;7.65;;;6.82;;
9880;SDS011;4979;51.014;6.678;2023-05-10T02:39:52;8.27;;;6.78;;
9880;SDS011;4979;51.014;6.678;2023-05-10T02:42:21;8.75;;;7.28;;
9880;SDS011;4979;51.014;6.678;2023-05-10T02:44:52;12.75;;;7.93;;
9880;SDS011;4979;51.014;6.678;2023-05-10T02:47:19;9.63;;;7.13;;
9880;SDS011;4979;51.014;6.678;2023-05-10T02:49:46;22.63;;;8.75;;
9880;SDS011;4979;51.014;6.678;2023-05-10T02:52:12;11.27;;;7.80;;
9880;SDS011;4979;51.014;6.678;2023-05-10T02:54:47;14.20;;;8.68;;
9880;SDS011;4979;51.014;6.678;2023-05-10T02:57:16;13.23;;;8.68;;
9880;SDS011;4979;51.014;6.678;2023-05-10T02:59:45;14.90;;;9.25;;
9880;SDS011;4979;51.014;6.678;2023-05-10T03:02:12;15.55;;;10.35;;
9880;SDS011;4979;51.014;6.678;2023-05-10T03:04:38;13.32;;;10.00;;
9880;SDS011;4979;51.014;6.678;2023-05-10T03:07:03;13.82;;;9.98;;
9880;SDS011;4979;51.014;6.678;2023-05-10T03:09:29;13.45;;;10.63;;
9880;SDS011;4979;51.014;6.678;2023-05-10T03:20:21;12.05;;;9.93;;
9880;SDS011;4979;51.014;6.678;2023-05-10T03:23:00;19.23;;;11.10;;
9880;SDS011;4979;51.014;6.678;2023-05-10T03:25:34;13.60;;;9.57;;
9880;SDS011;4979;51.014;6.678;2023-05-10T03:28:01;12.35;;;9.65;;
9880;SDS011;4979;51.014;6.678;2023-05-10T03:30:28;13.02;;;8.73;;
9880;SDS011;4979;51.014;6.678;2023-05-10T03:32:54;13.90;;;9.85;;
9880;SDS011;4979;51.014;6.678;2023-05-10T03:35:20;14.25;;;10.68;;
9880;SDS011;4979;51.014;6.678;2023-05-10T03:37:46;16.75;;;10.13;;
9880;SDS011;4979;51.014;6.678;2023-05-10T03:40:13;17.50;;;11.75;;
9880;SDS011;4979;51.014;6.678;2023-05-10T03:42:38;18.17;;;11.25;;
9880;SDS011;4979;51.014;6.678;2023-05-10T03:45:04;17.02;;;11.57;;
9880;SDS011;4979;51.014;6.678;2023-05-10T03:47:30;16.77;;;11.80;;
9880;SDS011;4979;51.014;6.678;2023-05-10T03:49:56;20.15;;;11.93;;
9880;SDS011;4979;51.014;6.678;2023-05-10T03:52:22;16.00;;;10.25;;
9880;SDS011;4979;51.014;6.678;2023-05-10T03:54:47;16.60;;;11.18;;
9880;SDS011;4979;51.014;6.678;2023-05-10T03:57:13;14.50;;;11.50;;
9880;SDS011;4979;51.014;6.678;2023-05-10T03:59:38;21.00;;;11.70;;
9880;SDS011;4979;51.014;6.678;2023-05-10T04:02:04;15.40;;;11.43;;
9880;SDS011;4979;51.014;6.678;2023-05-10T04:04:30;15.35;;;11.23;;
9880;SDS011;4979;51.014;6.678;2023-05-10T04:06:56;17.90;;;11.55;;
9880;SDS011;4979;51.014;6.678;2023-05-10T04:09:21;18.58;;;11.80;;
9880;SDS011;4979;51.014;6.678;2023-05-10T04:11:47;14.50;;;11.30;;
9880;SDS011;4979;51.014;6.678;2023-05-10T04:14:12;17.75;;;12.13;;
9880;SDS011;4979;51.014;6.678;2023-05-10T04:16:38;14.40;;;11.15;;
9880;SDS011;4979;51.014;6.678;2023-05-10T04:19:04;18.45;;;12.15;;
9880;SDS011;4979;51.014;6.678;2023-05-10T04:21:29;17.35;;;12.52;;
9880;SDS011;4979;51.014;6.678;2023-05-10T04:23:55;16.75;;;11.13;;
9880;SDS011;4979;51.014;6.678;2023-05-10T04:26:20;14.43;;;10.88;;
9880;SDS011;4979;51.014;6.678;2023-05-10T04:28:46;15.20;;;11.48;;
9880;SDS011;4979;51.014;6.678;2023-05-10T04:31:12;16.20;;;11.45;;
9880;SDS011;4979;51.014;6.678;2023-05-10T04:33:38;18.73;;;11.48;;
9880;SDS011;4979;51.014;6.678;2023-05-10T04:36:04;15.35;;;11.98;;
9880;SDS011;4979;51.014;6.678;2023-05-10T04:38:30;16.02;;;10.73;;
9880;SDS011;4979;51.014;6.678;2023-05-10T04:41:08;20.05;;;11.20;;
9880;SDS011;4979;51.014;6.678;2023-05-10T04:43:35;19.52;;;10.88;;
9880;SDS011;4979;51.014;6.678;2023-05-10T04:46:02;16.33;;;10.57;;
9880;SDS011;4979;51.014;6.678;2023-05-10T04:48:28;13.00;;;9.82;;
9880;SDS011;4979;51.014;6.678;2023-05-10T04:50:54;15.73;;;10.10;;
9880;SDS011;4979;51.014;6.678;2023-05-10T04:53:20;13.95;;;10.05;;
9880;SDS011;4979;51.014;6.678;2023-05-10T04:55:46;13.00;;;9.70;;
9880;SDS011;4979;51.014;6.678;2023-05-10T04:58:12;18.98;;;9.45;;
9880;SDS011;4979;51.014;6.678;2023-05-10T05:00:38;14.77;;;9.88;;
9880;SDS011;4979;51.014;6.678;2023-05-10T05:03:04;17.50;;;9.70;;
9880;SDS011;4979;51.014;6.678;2023-05-10T05:05:30;15.85;;;9.18;;
9880;SDS011;4979;51.014;6.678;2023-05-10T05:07:55;16.52;;;9.85;;
9880;SDS011;4979;51.014;6.678;2023-05-10T05:10:21;14.68;;;9.18;;
9880;SDS011;4979;51.014;6.678;2023-05-10T05:12:47;17.05;;;9.63;;
9880;SDS011;4979;51.014;6.678;2023-05-10T05:15:12;19.42;;;10.30;;
9880;SDS011;4979;51.014;6.678;2023-05-10T05:17:38;16.92;;;9.77;;
9880;SDS011;4979;51.014;6.678;2023-05-10T05:20:04;15.93;;;10.18;;
9880;SDS011;4979;51.014;6.678;2023-05-10T05:22:30;21.00;;;10.32;;
9880;SDS011;4979;51.014;6.678;2023-05-10T05:24:56;17.50;;;10.52;;
9880;SDS011;4979;51.014;6.678;2023-05-10T05:27:23;18.02;;;9.98;;
9880;SDS011;4979;51.014;6.678;2023-05-10T05:29:52;24.60;;;10.68;;
9880;SDS011;4979;51.014;6.678;2023-05-10T05:32:21;17.90;;;10.35;;
9880;SDS011;4979;51.014;6.678;2023-05-10T05:34:47;17.70;;;10.60;;
9880;SDS011;4979;51.014;6.678;2023-05-10T05:37:16;22.83;;;11.48;;
9880;SDS011;4979;51.014;6.678;2023-05-10T05:39:44;21.75;;;12.23;;
9880;SDS011;4979;51.014;6.678;2023-05-10T05:42:10;21.17;;;11.10;;
9880;SDS011;4979;51.014;6.678;2023-05-10T05:44:36;17.95;;;10.07;;
9880;SDS011;4979;51.014;6.678;2023-05-10T05:47:02;20.63;;;10.50;;
9880;SDS011;4979;51.014;6.678;2023-05-10T05:49:29;20.15;;;10.30;;
9880;SDS011;4979;51.014;6.678;2023-05-10T05:51:58;17.17;;;10.82;;
9880;SDS011;4979;51.014;6.678;2023-05-10T05:54:24;17.35;;;11.07;;
9880;SDS011;4979;51.014;6.678;2023-05-10T05:56:49;21.50;;;11.45;;
9880;SDS011;4979;51.014;6.678;2023-05-10T05:59:15;19.40;;;10.25;;
9880;SDS011;4979;51.014;6.678;2023-05-10T06:01:41;19.25;;;10.85;;
9880;SDS011;4979;51.014;6.678;2023-05-10T06:04:07;18.50;;;11.18;;
9880;SDS011;4979;51.014;6.678;2023-05-10T06:06:33;17.25;;;11.43;;
9880;SDS011;4979;51.014;6.678;2023-05-10T06:08:58;20.77;;;11.98;;
9880;SDS011;4979;51.014;6.678;2023-05-10T06:11:24;20.40;;;12.30;;
9880;SDS011;4979;51.014;6.678;2023-05-10T06:13:50;23.63;;;11.93;;
9880;SDS011;4979;51.014;6.678;2023-05-10T06:16:16;22.13;;;12.02;;
9880;SDS011;4979;51.014;6.678;2023-05-10T06:18:42;19.17;;;11.90;;
9880;SDS011;4979;51.014;6.678;2023-05-10T06:21:08;21.98;;;11.88;;
9880;SDS011;4979;51.014;6.678;2023-05-10T06:23:34;23.35;;;12.40;;
9880;SDS011;4979;51.014;6.678;2023-05-10T06:26:00;18.95;;;12.05;;
9880;SDS011;4979;51.014;6.678;2023-05-10T06:28:26;19.73;;;11.32;;
9880;SDS011;4979;51.014;6.678;2023-05-10T06:30:51;18.02;;;12.45;;
9880;SDS011;4979;51.014;6.678;2023-05-10T06:33:17;21.45;;;11.93;;
9880;SDS011;4979;51.014;6.678;2023-05-10T06:35:42;24.00;;;12.02;;
9880;SDS011;4979;51.014;6.678;2023-05-10T06:38:08;22.52;;;13.25;;
9880;SDS011;4979;51.014;6.678;2023-05-10T06:40:34;23.42;;;12.63;;
9880;SDS011;4979;51.014;6.678;2023-05-10T06:43:00;22.17;;;13.13;;
9880;SDS011;4979;51.014;6.678;2023-05-10T06:45:26;19.75;;;11.52;;
9880;SDS011;4979;51.014;6.678;2023-05-10T06:47:51;17.88;;;13.13;;
9880;SDS011;4979;51.014;6.678;2023-05-10T06:50:17;21.17;;;13.32;;
9880;SDS011;4979;51.014;6.678;2023-05-10T06:52:43;22.55;;;13.60;;
9880;SDS011;4979;51.014;6.678;2023-05-10T06:55:08;20.80;;;13.60;;
9880;SDS011;4979;51.014;6.678;2023-05-10T06:57:34;19.63;;;13.15;;
9880;SDS011;4979;51.014;6.678;2023-05-10T07:00:00;23.45;;;14.25;;
9880;SDS011;4979;51.014;6.678;2023-05-10T07:02:28;22.48;;;13.80;;
9880;SDS011;4979;51.014;6.678;2023-05-10T07:04:54;23.38;;;14.30;;
9880;SDS011;4979;51.014;6.678;2023-05-10T07:07:20;21.05;;;13.55;;
9880;SDS011;4979;51.014;6.678;2023-05-10T07:09:45;21.38;;;14.65;;
9880;SDS011;4979;51.014;6.678;2023-05-10T07:12:11;20.27;;;14.35;;
9880;SDS011;4979;51.014;6.678;2023-05-10T07:14:37;20.38;;;13.60;;
9880;SDS011;4979;51.014;6.678;2023-05-10T07:17:03;24.55;;;13.63;;
9880;SDS011;4979;51.014;6.678;2023-05-10T07:19:29;25.83;;;13.13;;
9880;SDS011;4979;51.014;6.678;2023-05-10T07:21:55;21.75;;;13.20;;
9880;SDS011;4979;51.014;6.678;2023-05-10T07:24:20;18.48;;;12.82;;
9880;SDS011;4979;51.014;6.678;2023-05-10T07:26:46;21.80;;;13.43;;
9880;SDS011;4979;51.014;6.678;2023-05-10T07:29:12;19.15;;;13.25;;
9880;SDS011;4979;51.014;6.678;2023-05-10T07:31:38;16.60;;;12.38;;
9880;SDS011;4979;51.014;6.678;2023-05-10T07:34:03;21.85;;;12.27;;
9880;SDS011;4979;51.014;6.678;2023-05-10T07:36:29;19.27;;;12.23;;
9880;SDS011;4979;51.014;6.678;2023-05-10T07:38:55;16.60;;;10.88;;
9880;SDS011;4979;51.014;6.678;2023-05-10T07:41:22;16.50;;;11.40;;
9880;SDS011;4979;51.014;6.678;2023-05-10T07:43:48;18.20;;;11.68;;
9880;SDS011;4979;51.014;6.678;2023-05-10T07:46:13;19.02;;;10.40;;
9880;SDS011;4979;51.014;6.678;2023-05-10T07:48:39;14.00;;;10.85;;
9880;SDS011;4979;51.014;6.678;2023-05-10T07:51:04;18.25;;;11.57;;
9880;SDS011;4979;51.014;6.678;2023-05-10T07:53:32;20.10;;;11.95;;
9880;SDS011;4979;51.014;6.678;2023-05-10T07:55:58;16.30;;;11.80;;
9880;SDS011;4979;51.014;6.678;2023-05-10T07:58:24;15.70;;;11.38;;
9880;SDS011;4979;51.014;6.678;2023-05-10T08:00:50;19.00;;;12.43;;
9880;SDS011;4979;51.014;6.678;2023-05-10T08:03:16;20.75;;;12.35;;
9880;SDS011;4979;51.014;6.678;2023-05-10T08:05:42;19.77;;;12.00;;
9880;SDS011;4979;51.014;6.678;2023-05-10T08:08:07;21.92;;;14.75;;
9880;SDS011;4979;51.014;6.678;2023-05-10T08:10:33;19.92;;;14.38;;
9880;SDS011;4979;51.014;6.678;2023-05-10T08:12:59;24.10;;;16.70;;
9880;SDS011;4979;51.014;6.678;2023-05-10T08:15:25;28.52;;;17.83;;
9880;SDS011;4979;51.014;6.678;2023-05-10T08:17:53;27.38;;;18.75;;
9880;SDS011;4979;51.014;6.678;2023-05-10T08:20:19;35.00;;;20.27;;
9880;SDS011;4979;51.014;6.678;2023-05-10T08:22:45;31.13;;;22.13;;
9880;SDS011;4979;51.014;6.678;2023-05-10T08:25:11;31.25;;;19.15;;
9880;SDS011;4979;51.014;6.678;2023-05-10T08:27:37;31.35;;;18.40;;
9880;SDS011;4979;51.014;6.678;2023-05-10T08:30:03;27.58;;;17.65;;
9880;SDS011;4979;51.014;6.678;2023-05-10T08:32:28;30.33;;;18.13;;
9880;SDS011;4979;51.014;6.678;2023-05-10T08:34:54;25.98;;;17.08;;
9880;SDS011;4979;51.014;6.678;2023-05-10T08:37:20;26.50;;;17.55;;
9880;SDS011;4979;51.014;6.678;2023-05-10T08:39:47;30.20;;;18.02;;
9880;SDS011;4979;51.014;6.678;2023-05-10T08:42:13;30.83;;;18.92;;
9880;SDS011;4979;51.014;6.678;2023-05-10T08:44:44;32.95;;;19.40;;
9880;SDS011;4979;51.014;6.678;2023-05-10T08:47:13;26.92;;;17.33;;
9880;SDS011;4979;51.014;6.678;2023-05-10T08:49:41;28.83;;;18.33;;
9880;SDS011;4979;51.014;6.678;2023-05-10T08:52:07;26.95;;;17.25;;
9880;SDS011;4979;51.014;6.678;2023-05-10T08:54:35;26.15;;;15.52;;
9880;SDS011;4979;51.014;6.678;2023-05-10T08:57:01;22.40;;;15.52;;
9880;SDS011;4979;51.014;6.678;2023-05-10T08:59:28;21.48;;;14.15;;
9880;SDS011;4979;51.014;6.678;2023-05-10T09:01:53;21.85;;;13.70;;
9880;SDS011;4979;51.014;6.678;2023-05-10T09:04:24;18.85;;;13.45;;
9880;SDS011;4979;51.014;6.678;2023-05-10T09:06:50;18.40;;;12.77;;
9880;SDS011;4979;51.014;6.678;2023-05-10T09:09:15;21.35;;;15.27;;
9880;SDS011;4979;51.014;6.678;2023-05-10T09:11:42;18.40;;;11.85;;
9880;SDS011;4979;51.014;6.678;2023-05-10T09:14:08;16.05;;;11.48;;
9880;SDS011;4979;51.014;6.678;2023-05-10T09:16:34;17.65;;;12.77;;
9880;SDS011;4979;51.014;6.678;2023-05-10T09:19:00;18.08;;;12.32;;
9880;SDS011;4979;51.014;6.678;2023-05-10T09:21:25;17.65;;;11.85;;
9880;SDS011;4979;51.014;6.678;2023-05-10T09:23:52;18.95;;;12.10;;
9880;SDS011;4979;51.014;6.678;2023-05-10T09:26:21;17.95;;;12.38;;
9880;SDS011;4979;51.014;6.678;2023-05-10T09:28:52;16.23;;;12.88;;
9880;SDS011;4979;51.014;6.678;2023-05-10T09:31:21;21.08;;;13.63;;
9880;SDS011;4979;51.014;6.678;2023-05-10T09:33:48;18.92;;;12.70;;
9880;SDS011;4979;51.014;6.678;2023-05-10T09:36:15;21.30;;;13.45;;
9880;SDS011;4979;51.014;6.678;2023-05-10T09:38:51;16.38;;;12.48;;
9880;SDS011;4979;51.014;6.678;2023-05-10T09:41:23;19.75;;;12.70;;
9880;SDS011;4979;51.014;6.678;2023-05-10T09:43:50;17.48;;;12.57;;
9880;SDS011;4979;51.014;6.678;2023-05-10T09:46:20;21.20;;;13.68;;
9880;SDS011;4979;51.014;6.678;2023-05-10T09:48:47;18.25;;;13.25;;
9880;SDS011;4979;51.014;6.678;2023-05-10T09:51:22;15.32;;;12.00;;
9880;SDS011;4979;51.014;6.678;2023-05-10T09:56:35;15.82;;;12.38;;
9880;SDS011;4979;51.014;6.678;2023-05-10T09:59:02;15.70;;;12.07;;
9880;SDS011;4979;51.014;6.678;2023-05-10T10:01:28;14.77;;;10.75;;
9880;SDS011;4979;51.014;6.678;2023-05-10T10:03:54;14.48;;;10.77;;
9880;SDS011;4979;51.014;6.678;2023-05-10T10:06:19;14.93;;;10.73;;
9880;SDS011;4979;51.014;6.678;2023-05-10T10:08:45;14.80;;;10.43;;
9880;SDS011;4979;51.014;6.678;2023-05-10T10:11:11;16.70;;;10.38;;
9880;SDS011;4979;51.014;6.678;2023-05-10T10:13:36;14.88;;;10.10;;
9880;SDS011;4979;51.014;6.678;2023-05-10T10:16:02;14.95;;;10.82;;
9880;SDS011;4979;51.014;6.678;2023-05-10T10:18:28;12.88;;;9.82;;
9880;SDS011;4979;51.014;6.678;2023-05-10T10:20:55;11.85;;;7.97;;
9880;SDS011;4979;51.014;6.678;2023-05-10T10:23:21;12.70;;;9.07;;
9880;SDS011;4979;51.014;6.678;2023-05-10T10:25:47;14.65;;;9.77;;
9880;SDS011;4979;51.014;6.678;2023-05-10T10:30:51;10.90;;;8.50;;
9880;SDS011;4979;51.014;6.678;2023-05-10T10:36:22;10.68;;;7.65;;
9880;SDS011;4979;51.014;6.678;2023-05-10T10:57:26;7.03;;;6.22;;
9880;SDS011;4979;51.014;6.678;2023-05-10T11:02:43;7.80;;;5.90;;
9880;SDS011;4979;51.014;6.678;2023-05-10T11:05:25;6.78;;;5.70;;
9880;SDS011;4979;51.014;6.678;2023-05-10T11:07:58;6.95;;;5.68;;
9880;SDS011;4979;51.014;6.678;2023-05-10T11:10:25;7.28;;;5.40;;
9880;SDS011;4979;51.014;6.678;2023-05-10T11:12:52;6.68;;;5.57;;
9880;SDS011;4979;51.014;6.678;2023-05-10T11:15:29;5.95;;;5.00;;
9880;SDS011;4979;51.014;6.678;2023-05-10T11:17:59;6.97;;;4.28;;
9880;SDS011;4979;51.014;6.678;2023-05-10T11:20:40;5.75;;;4.32;;
9880;SDS011;4979;51.014;6.678;2023-05-10T11:23:13;5.25;;;4.65;;
9880;SDS011;4979;51.014;6.678;2023-05-10T11:25:43;5.75;;;5.20;;
9880;SDS011;4979;51.014;6.678;2023-05-10T11:28:09;6.85;;;5.32;;
9880;SDS011;4979;51.014;6.678;2023-05-10T11:30:36;7.55;;;4.43;;
9880;SDS011;4979;51.014;6.678;2023-05-10T11:33:06;4.57;;;4.03;;
9880;SDS011;4979;51.014;6.678;2023-05-10T11:35:39;3.63;;;3.33;;
9880;SDS011;4979;51.014;6.678;2023-05-10T11:38:10;3.60;;;3.30;;
9880;SDS011;4979;51.014;6.678;2023-05-10T11:40:38;3.78;;;3.17;;
9880;SDS011;4979;51.014;6.678;2023-05-10T11:43:05;4.93;;;3.40;;
9880;SDS011;4979;51.014;6.678;2023-05-10T11:45:34;3.38;;;3.05;;
9880;SDS011;4979;51.014;6.678;2023-05-10T11:48:00;3.63;;;3.03;;
9880;SDS011;4979;51.014;6.678;2023-05-10T11:50:27;5.50;;;3.10;;
9880;SDS011;4979;51.014;6.678;2023-05-10T11:52:54;3.83;;;3.50;;
9880;SDS011;4979;51.014;6.678;2023-05-10T11:55:22;3.30;;;2.58;;
9880;SDS011;4979;51.014;6.678;2023-05-10T11:57:55;4.35;;;3.25;;
9880;SDS011;4979;51.014;6.678;2023-05-10T12:00:26;3.67;;;3.17;;
9880;SDS011;4979;51.014;6.678;2023-05-10T12:02:52;4.03;;;3.65;;
9880;SDS011;4979;51.014;6.678;2023-05-10T12:05:17;5.05;;;3.70;;
9880;SDS011;4979;51.014;6.678;2023-05-10T12:07:43;4.07;;;3.65;;
9880;SDS011;4979;51.014;6.678;2023-05-10T12:10:10;4.75;;;3.85;;
9880;SDS011;4979;51.014;6.678;2023-05-10T12:12:42;3.65;;;3.00;;
9880;SDS011;4979;51.014;6.678;2023-05-10T12:15:12;3.63;;;3.28;;
9880;SDS011;4979;51.014;6.678;2023-05-10T12:17:43;4.25;;;3.85;;
9880;SDS011;4979;51.014;6.678;2023-05-10T12:20:22;3.40;;;2.92;;
9880;SDS011;4979;51.014;6.678;2023-05-10T12:22:50;3.78;;;3.35;;
9880;SDS011;4979;51.014;6.678;2023-05-10T12:25:17;3.78;;;3.45;;
9880;SDS011;4979;51.014;6.678;2023-05-10T12:27:51;3.80;;;3.45;;
9880;SDS011;4979;51.014;6.678;2023-05-10T12:30:27;4.80;;;4.20;;
9880;SDS011;4979;51.014;6.678;2023-05-10T12:32:59;4.38;;;3.97;;
9880;SDS011;4979;51.014;6.678;2023-05-10T12:35:47;4.28;;;3.88;;
9880;SDS011;4979;51.014;6.678;2023-05-10T12:38:27;3.80;;;3.40;;
9880;SDS011;4979;51.014;6.678;2023-05-10T12:40:56;4.65;;;4.00;;
9880;SDS011;4979;51.014;6.678;2023-05-10T12:43:22;3.70;;;3.40;;
9880;SDS011;4979;51.014;6.678;2023-05-10T12:45:48;4.65;;;4.22;;
9880;SDS011;4979;51.014;6.678;2023-05-10T12:48:14;4.28;;;3.80;;
9880;SDS011;4979;51.014;6.678;2023-05-10T12:50:40;4.40;;;3.97;;
9880;SDS011;4979;51.014;6.678;2023-05-10T12:53:05;3.90;;;3.60;;
9880;SDS011;4979;51.014;6.678;2023-05-10T12:55:31;3.88;;;3.20;;
9880;SDS011;4979;51.014;6.678;2023-05-10T12:57:57;4.07;;;2.92;;
9880;SDS011;4979;51.014;6.678;2023-05-10T13:00:22;2.85;;;2.50;;
9880;SDS011;4979;51.014;6.678;2023-05-10T13:02:48;3.03;;;2.72;;
9880;SDS011;4979;51.014;6.678;2023-05-10T13:05:14;3.90;;;2.72;;
9880;SDS011;4979;51.014;6.678;2023-05-10T13:07:39;3.78;;;2.88;;
9880;SDS011;4979;51.014;6.678;2023-05-10T13:10:06;2.95;;;2.75;;
9880;SDS011;4979;51.014;6.678;2023-05-10T13:12:32;2.92;;;2.53;;
9880;SDS011;4979;51.014;6.678;2023-05-10T13:14:57;3.90;;;2.42;;
9880;SDS011;4979;51.014;6.678;2023-05-10T13:17:24;2.30;;;2.10;;
9880;SDS011;4979;51.014;6.678;2023-05-10T13:19:50;2.60;;;2.00;;
9880;SDS011;4979;51.014;6.678;2023-05-10T13:22:16;2.20;;;2.00;;
9880;SDS011;4979;51.014;6.678;2023-05-10T13:24:41;2.08;;;1.88;;
9880;SDS011;4979;51.014;6.678;2023-05-10T13:27:07;2.83;;;1.85;;
9880;SDS011;4979;51.014;6.678;2023-05-10T13:29:32;2.33;;;2.08;;
9880;SDS011;4979;51.014;6.678;2023-05-10T13:31:58;3.17;;;2.50;;
9880;SDS011;4979;51.014;6.678;2023-05-10T13:34:24;3.25;;;2.90;;
9880;SDS011;4979;51.014;6.678;2023-05-10T13:36:50;2.60;;;2.40;;
9880;SDS011;4979;51.014;6.678;2023-05-10T13:39:15;3.00;;;2.53;;
9880;SDS011;4979;51.014;6.678;2023-05-10T13:41:41;2.72;;;2.53;;
9880;SDS011;4979;51.014;6.678;2023-05-10T13:44:07;2.60;;;2.40;;
9880;SDS011;4979;51.014;6.678;2023-05-10T13:46:32;2.35;;;2.08;;
9880;SDS011;4979;51.014;6.678;2023-05-10T13:48:58;3.05;;;1.95;;
9880;SDS011;4979;51.014;6.678;2023-05-10T13:51:23;2.95;;;2.30;;
9880;SDS011;4979;51.014;6.678;2023-05-10T13:53:49;2.40;;;2.20;;
9880;SDS011;4979;51.014;6.678;2023-05-10T13:56:15;3.67;;;2.63;;
9880;SDS011;4979;51.014;6.678;2023-05-10T13:58:40;2.30;;;2.08;;
9880;SDS011;4979;51.014;6.678;2023-05-10T14:01:06;2.70;;;2.25;;
9880;SDS011;4979;51.014;6.678;2023-05-10T14:03:32;3.78;;;2.00;;
9880;SDS011;4979;51.014;6.678;2023-05-10T14:05:58;2.33;;;2.00;;
9880;SDS011;4979;51.014;6.678;2023-05-10T14:08:23;3.08;;;2.10;;
9880;SDS011;4979;51.014;6.678;2023-05-10T14:10:49;2.85;;;2.63;;
9880;SDS011;4979;51.014;6.678;2023-05-10T14:13:17;3.13;;;2.70;;
9880;SDS011;4979;51.014;6.678;2023-05-10T14:15:42;2.60;;;2.40;;
9880;SDS011;4979;51.014;6.678;2023-05-10T14:18:08;3.78;;;2.47;;
9880;SDS011;4979;51.014;6.678;2023-05-10T14:20:34;3.40;;;2.60;;
9880;SDS011;4979;51.014;6.678;2023-05-10T14:22:59;3.80;;;2.80;;
9880;SDS011;4979;51.014;6.678;2023-05-10T14:25:25;2.95;;;2.65;;
9880;SDS011;4979;51.014;6.678;2023-05-10T14:27:51;3.22;;;2.78;;
9880;SDS011;4979;51.014;6.678;2023-05-10T14:30:19;3.08;;;2.30;;
9880;SDS011;4979;51.014;6.678;2023-05-10T14:32:45;2.25;;;2.05;;
9880;SDS011;4979;51.014;6.678;2023-05-10T14:35:11;2.25;;;2.00;;
9880;SDS011;4979;51.014;6.678;2023-05-10T14:37:37;4.00;;;2.03;;
9880;SDS011;4979;51.014;6.678;2023-05-10T14:40:03;2.85;;;2.40;;
9880;SDS011;4979;51.014;6.678;2023-05-10T14:42:31;3.05;;;2.70;;
9880;SDS011;4979;51.014;6.678;2023-05-10T14:44:56;4.25;;;2.75;;
9880;SDS011;4979;51.014;6.678;2023-05-10T14:47:22;2.70;;;2.25;;
9880;SDS011;4979;51.014;6.678;2023-05-10T14:49:48;3.15;;;2.60;;
9880;SDS011;4979;51.014;6.678;2023-05-10T14:52:13;4.80;;;2.35;;
9880;SDS011;4979;51.014;6.678;2023-05-10T14:54:39;2.42;;;2.22;;
9880;SDS011;4979;51.014;6.678;2023-05-10T14:57:06;4.45;;;2.58;;
9880;SDS011;4979;51.014;6.678;2023-05-10T14:59:32;3.65;;;2.38;;
9880;SDS011;4979;51.014;6.678;2023-05-10T15:01:57;2.55;;;2.30;;
9880;SDS011;4979;51.014;6.678;2023-05-10T15:04:23;4.28;;;2.60;;
9880;SDS011;4979;51.014;6.678;2023-05-10T15:06:49;2.40;;;2.20;;
9880;SDS011;4979;51.014;6.678;2023-05-10T15:09:14;3.95;;;2.53;;
9880;SDS011;4979;51.014;6.678;2023-05-10T15:11:41;1.90;;;1.75;;
9880;SDS011;4979;51.014;6.678;2023-05-10T15:14:07;2.50;;;1.90;;
9880;SDS011;4979;51.014;6.678;2023-05-10T15:16:33;1.88;;;1.70;;
9880;SDS011;4979;51.014;6.678;2023-05-10T15:18:58;2.80;;;2.03;;
9880;SDS011;4979;51.014;6.678;2023-05-10T15:21:24;2.83;;;2.50;;
9880;SDS011;4979;51.014;6.678;2023-05-10T15:23:49;5.40;;;2.75;;
9880;SDS011;4979;51.014;6.678;2023-05-10T15:26:16;3.38;;;3.00;;
9880;SDS011;4979;51.014;6.678;2023-05-10T15:28:41;2.50;;;2.30;;
9880;SDS011;4979;51.014;6.678;2023-05-10T15:31:07;2.20;;;2.00;;
9880;SDS011;4979;51.014;6.678;2023-05-10T15:33:32;3.42;;;1.90;;
9880;SDS011;4979;51.014;6.678;2023-05-10T15:35:58;4.00;;;2.00;;
9880;SDS011;4979;51.014;6.678;2023-05-10T15:38:23;3.65;;;2.20;;
9880;SDS011;4979;51.014;6.678;2023-05-10T15:40:49;2.50;;;2.30;;
9880;SDS011;4979;51.014;6.678;2023-05-10T15:43:15;2.90;;;2.03;;
9880;SDS011;4979;51.014;6.678;2023-05-10T15:45:41;2.90;;;2.00;;
9880;SDS011;4979;51.014;6.678;2023-05-10T15:48:06;1.77;;;1.60;;